Time;durP1;ratioP1;P1;durP2;ratioP2;P2;SDS_P1;SDS_P2;PMS_P1;PMS_P2;Temp;Humidity;BMP_temperature;BMP_pressure;BME280_temperature;BME280_humidity;BME280_pressure;Samples;Min_cycle;Max_cycle;Signal;HPM_P1;HPM_P2
2023/10/02 00:01:59;;;;;;;4.82;1.60;;;15.60;99.90;;;;;;2621938;46;20026;31
2023/10/02 00:04:37;;;;;;;6.85;2.40;;;15.60;99.90;;;;;;2603382;54;20095;31
2023/10/02 00:07:22;;;;;;;4.50;2.13;;;15.60;99.90;;;;;;2622139;46;20027;31
2023/10/02 00:09:56;;;;;;;3.97;2.40;;;15.70;99.90;;;;;;2621018;46;20789;31
2023/10/02 00:12:31;;;;;;;4.50;1.83;;;15.70;99.90;;;;;;2603435;54;20022;31
2023/10/02 00:15:14;;;;;;;7.20;2.55;;;15.60;99.90;;;;;;2622137;46;20026;31
2023/10/02 00:17:57;;;;;;;5.05;2.30;;;15.60;99.90;;;;;;2603062;54;20409;31
2023/10/02 00:20:32;;;;;;;5.53;2.10;;;15.70;99.90;;;;;;2603342;54;20026;31
2023/10/02 00:23:11;;;;;;;4.05;2.22;;;15.60;99.90;;;;;;2603332;54;20076;31
2023/10/02 00:26:03;;;;;;;5.03;2.28;;;15.60;99.90;;;;;;2603192;54;20037;31
2023/10/02 00:28:42;;;;;;;5.82;2.45;;;15.70;99.90;;;;;;2603663;54;20862;31
2023/10/02 00:31:33;;;;;;;5.07;2.20;;;15.60;99.90;;;;;;2701830;39;21515;31
2023/10/02 00:34:13;;;;;;;5.35;2.25;;;15.70;99.90;;;;;;2603325;54;20026;31
2023/10/02 00:36:53;;;;;;;5.53;1.95;;;15.70;99.90;;;;;;2603450;54;20030;31
2023/10/02 00:39:31;;;;;;;4.85;1.95;;;15.70;99.90;;;;;;2603328;54;20061;31
2023/10/02 00:42:15;;;;;;;4.45;2.40;;;15.70;99.90;;;;;;2602445;54;20030;31
2023/10/02 00:44:52;;;;;;;6.53;2.27;;;15.70;99.90;;;;;;2603273;54;20051;31
2023/10/02 00:47:53;;;;;;;;;;;15.80;99.90;;;;;;2603357;54;20038;31
2023/10/02 00:50:48;;;;;;;3.65;1.60;;;15.80;99.90;;;;;;2608988;46;19942;31
2023/10/02 00:53:38;;;;;;;7.13;2.60;;;15.80;99.90;;;;;;2621641;46;20766;31
2023/10/02 00:56:23;;;;;;;5.88;2.22;;;15.80;99.90;;;;;;2603272;54;20085;31
2023/10/02 00:59:02;;;;;;;5.88;2.65;;;15.80;99.90;;;;;;2622032;46;20771;31
2023/10/02 01:01:53;;;;;;;5.15;1.90;;;15.80;99.90;;;;;;2603011;54;20096;31
2023/10/02 01:04:34;;;;;;;5.32;2.58;;;15.80;99.90;;;;;;2603377;54;20837;31
2023/10/02 01:07:16;;;;;;;4.13;2.00;;;15.80;99.90;;;;;;2621526;46;20030;31
2023/10/02 01:12:49;;;;;;;3.92;2.05;;;15.80;99.90;;;;;;2702031;39;20996;31
2023/10/02 01:15:26;;;;;;;6.15;2.20;;;15.80;99.90;;;;;;2603153;54;20038;31
2023/10/02 01:18:27;;;;;;;6.13;2.22;;;15.90;99.90;;;;;;2603361;54;20148;31
2023/10/02 01:21:09;;;;;;;4.65;2.15;;;15.90;99.90;;;;;;2603487;54;19981;31
2023/10/02 01:24:06;;;;;;;3.65;2.00;;;15.90;99.90;;;;;;2603206;54;20034;31
2023/10/02 01:26:50;;;;;;;5.32;2.45;;;15.90;99.90;;;;;;2621721;46;20856;31
2023/10/02 01:29:31;;;;;;;;;;;15.90;99.90;;;;;;2603350;54;20101;31
2023/10/02 01:32:13;;;;;;;6.35;1.67;;;15.90;99.90;;;;;;2603159;54;19941;31
2023/10/02 01:34:51;;;;;;;5.23;1.90;;;15.90;99.90;;;;;;2602958;54;20030;31
2023/10/02 01:37:35;;;;;;;4.65;2.25;;;15.90;99.90;;;;;;2603041;54;20026;31
2023/10/02 01:43:12;;;;;;;4.78;2.38;;;15.90;99.90;;;;;;2603158;54;20935;31
2023/10/02 01:45:54;;;;;;;5.13;2.30;;;15.90;99.90;;;;;;2621795;46;20026;31
2023/10/02 01:48:41;;;;;;;6.53;2.40;;;15.90;99.90;;;;;;2603253;54;20050;31
2023/10/02 01:51:20;;;;;;;4.50;1.93;;;15.90;99.90;;;;;;2603242;54;20034;31
2023/10/02 01:53:57;;;;;;;5.60;2.30;;;15.90;99.90;;;;;;2602945;54;20045;31
2023/10/02 01:56:36;;;;;;;5.28;2.17;;;15.90;99.90;;;;;;2621762;47;20026;31
2023/10/02 01:59:14;;;;;;;6.75;1.90;;;15.90;99.90;;;;;;2603126;54;20027;31
2023/10/02 02:01:53;;;;;;;4.90;2.67;;;15.90;99.90;;;;;;2603320;54;20086;31
2023/10/02 02:04:33;;;;;;;4.50;2.13;;;15.90;99.90;;;;;;2603889;54;20885;31
2023/10/02 02:07:15;;;;;;;4.97;2.00;;;15.80;99.90;;;;;;2603002;54;20848;31
2023/10/02 02:09:51;;;;;;;5.43;2.40;;;15.90;99.90;;;;;;2622427;46;20113;31
2023/10/02 02:12:44;;;;;;;5.32;2.28;;;15.90;99.90;;;;;;2603667;54;20802;31
2023/10/02 02:15:22;;;;;;;6.22;2.53;;;15.90;99.90;;;;;;2603743;54;20949;31
2023/10/02 02:18:00;;;;;;;5.25;2.22;;;15.90;99.90;;;;;;2603881;54;20836;31
2023/10/02 02:20:57;;;;;;;4.07;2.13;;;15.90;99.90;;;;;;2701564;39;21516;31
2023/10/02 02:23:35;;;;;;;10.00;2.37;;;15.90;99.90;;;;;;2603741;54;20799;31
2023/10/02 02:26:20;;;;;;;5.30;1.90;;;15.90;99.90;;;;;;2603695;54;20950;31
2023/10/02 02:28:58;;;;;;;4.40;1.70;;;15.90;99.90;;;;;;2603678;54;20034;31
2023/10/02 02:31:36;;;;;;;6.63;2.15;;;15.90;99.90;;;;;;2603875;54;20040;31
2023/10/02 02:34:14;;;;;;;8.57;2.22;;;15.90;99.90;;;;;;2603861;54;20085;31
2023/10/02 02:36:50;;;;;;;5.18;2.58;;;15.90;99.90;;;;;;2603858;54;20081;31
2023/10/02 02:39:38;;;;;;;6.70;2.20;;;16.00;99.90;;;;;;2603698;54;20031;31
2023/10/02 02:42:22;;;;;;;7.28;1.95;;;16.00;99.90;;;;;;2603663;54;20042;31
2023/10/02 02:44:56;;;;;;;4.75;2.10;;;16.00;99.90;;;;;;2702300;39;21457;31
2023/10/02 02:47:51;;;;;;;6.07;2.30;;;16.00;99.90;;;;;;2603094;54;20851;31
2023/10/02 02:50:32;;;;;;;4.03;1.77;;;16.00;99.90;;;;;;2603596;54;20098;31
2023/10/02 02:53:21;;;;;;;4.82;1.70;;;15.90;99.90;;;;;;2603702;54;20873;31
2023/10/02 02:55:56;;;;;;;5.15;2.20;;;15.90;99.90;;;;;;2603782;54;20941;31
2023/10/02 02:58:35;;;;;;;5.67;2.13;;;15.90;99.90;;;;;;2603875;54;20056;31
2023/10/02 03:01:16;;;;;;;4.95;2.58;;;15.90;99.90;;;;;;2603648;54;20989;31
2023/10/02 03:03:56;;;;;;;5.03;2.17;;;15.90;99.90;;;;;;2622269;46;21254;31
2023/10/02 03:06:35;;;;;;;5.00;2.60;;;15.90;99.90;;;;;;2603634;54;20889;31
2023/10/02 03:09:23;;;;;;;5.35;2.08;;;15.90;99.90;;;;;;2603502;54;20031;31
2023/10/02 03:12:05;;;;;;;5.18;2.22;;;15.90;99.90;;;;;;2701945;39;21430;31
2023/10/02 03:14:40;;;;;;;4.95;1.95;;;15.90;99.90;;;;;;2603281;54;20105;31
2023/10/02 03:17:31;;;;;;;4.57;2.10;;;15.90;99.90;;;;;;2622213;46;19942;31
2023/10/02 03:20:22;;;;;;;5.55;2.13;;;15.90;99.90;;;;;;2603762;54;20890;31
2023/10/02 03:23:11;;;;;;;7.22;2.58;;;15.90;99.90;;;;;;2603476;54;20951;31
2023/10/02 03:25:47;;;;;;;6.90;4.80;;;15.90;99.90;;;;;;2603717;54;19989;31
2023/10/02 03:28:32;;;;;;;12.88;3.63;;;15.90;99.90;;;;;;2702008;39;21475;31
2023/10/02 03:31:09;;;;;;;6.00;2.90;;;15.90;99.90;;;;;;2603562;54;20029;31
2023/10/02 03:33:48;;;;;;;4.80;2.03;;;15.90;99.90;;;;;;2603827;54;20042;31
2023/10/02 03:36:28;;;;;;;5.93;2.50;;;15.90;99.90;;;;;;2603587;54;20031;31
2023/10/02 03:39:23;;;;;;;4.32;1.73;;;15.90;99.90;;;;;;2603421;54;20877;31
2023/10/02 03:42:01;;;;;;;3.00;1.35;;;15.90;99.90;;;;;;2603603;54;20029;31
2023/10/02 03:44:38;;;;;;;7.15;2.40;;;15.90;99.90;;;;;;2603779;54;20026;31
2023/10/02 03:47:18;;;;;;;6.35;2.30;;;15.90;99.90;;;;;;2622184;46;20026;31
2023/10/02 03:50:00;;;;;;;4.75;2.10;;;15.90;99.90;;;;;;2603352;54;20030;31
2023/10/02 03:52:45;;;;;;;7.22;2.00;;;15.90;99.90;;;;;;2603433;54;20027;31
2023/10/02 03:55:26;;;;;;;5.20;2.33;;;15.90;99.90;;;;;;2603616;54;20038;31
2023/10/02 03:58:03;;;;;;;5.43;2.35;;;16.00;99.90;;;;;;2603625;54;20022;31
2023/10/02 04:00:50;;;;;;;5.15;2.33;;;16.00;99.90;;;;;;2603538;54;20848;31
2023/10/02 04:03:32;;;;;;;5.65;2.25;;;16.00;99.90;;;;;;2603270;54;20030;31
2023/10/02 04:06:08;;;;;;;6.05;2.42;;;15.90;99.90;;;;;;2622049;46;20033;31
2023/10/02 04:08:47;;;;;;;4.63;2.15;;;15.90;99.90;;;;;;2603360;54;20860;31
2023/10/02 04:11:26;;;;;;;7.95;1.95;;;16.00;99.90;;;;;;2603834;54;20022;31
2023/10/02 04:16:32;;;;;;;3.90;1.55;;;16.00;99.90;;;;;;2617953;46;20056;31
2023/10/02 04:19:06;;;;;;;5.93;2.13;;;16.00;99.90;;;;;;2602968;54;20038;31
2023/10/02 04:21:45;;;;;;;8.30;2.40;;;16.00;99.90;;;;;;2603575;54;20867;31
2023/10/02 04:24:23;;;;;;;4.88;2.33;;;16.00;99.90;;;;;;2603307;54;20869;31
2023/10/02 04:27:14;;;;;;;5.75;3.15;;;16.00;99.90;;;;;;2603542;54;20848;31
2023/10/02 04:32:49;;;;;;;5.22;2.97;;;16.00;99.90;;;;;;2603401;54;20915;31
2023/10/02 04:38:14;;;;;;;7.40;4.63;;;15.90;99.90;;;;;;2603508;54;20619;31
2023/10/02 04:40:52;;;;;;;7.72;4.22;;;16.00;99.90;;;;;;2621528;46;20031;31
2023/10/02 04:43:28;;;;;;;8.07;4.10;;;16.00;99.90;;;;;;2603500;54;20036;31
2023/10/02 04:46:08;;;;;;;8.65;3.22;;;16.00;99.90;;;;;;2613723;46;20034;31
2023/10/02 04:48:54;;;;;;;8.15;3.65;;;16.00;99.90;;;;;;2603434;54;20026;31
2023/10/02 04:51:30;;;;;;;6.22;3.22;;;16.00;99.90;;;;;;2603378;54;21087;31
2023/10/02 04:54:06;;;;;;;5.25;2.70;;;16.00;99.90;;;;;;2603149;54;20038;31
2023/10/02 04:56:46;;;;;;;8.77;3.40;;;16.00;99.90;;;;;;2603244;54;20912;31
2023/10/02 04:59:50;;;;;;;5.40;3.20;;;16.00;99.90;;;;;;2602505;54;20895;31
2023/10/02 05:02:25;;;;;;;7.85;2.90;;;16.00;99.90;;;;;;2603221;54;20247;31
2023/10/02 05:04:59;;;;;;;4.63;2.83;;;16.00;99.90;;;;;;2603316;54;20133;31
2023/10/02 05:07:41;;;;;;;8.13;2.97;;;16.00;99.90;;;;;;2619329;46;20110;31
2023/10/02 05:10:15;;;;;;;6.70;2.47;;;16.00;99.90;;;;;;2603189;54;20856;31
2023/10/02 05:12:53;;;;;;;5.38;2.42;;;16.00;99.90;;;;;;2603364;54;20042;31
2023/10/02 05:15:28;;;;;;;9.20;3.00;;;16.00;99.90;;;;;;2603268;54;20072;31
2023/10/02 05:18:09;;;;;;;5.93;2.88;;;16.00;99.90;;;;;;2603269;54;20042;31
2023/10/02 05:20:45;;;;;;;7.68;3.15;;;16.00;99.90;;;;;;2603126;54;20848;31
2023/10/02 05:23:21;;;;;;;6.50;2.90;;;16.00;99.90;;;;;;2603232;54;20967;31
2023/10/02 05:26:04;;;;;;;4.05;2.25;;;16.00;99.90;;;;;;2603200;54;20150;31
2023/10/02 05:28:50;;;;;;;6.45;2.90;;;16.00;99.90;;;;;;2603187;54;20030;31
2023/10/02 05:31:27;;;;;;;6.80;3.00;;;16.00;99.90;;;;;;2621955;46;20859;31
2023/10/02 05:34:13;;;;;;;5.30;2.30;;;16.00;99.90;;;;;;2614779;46;20996;31
2023/10/02 05:37:11;;;;;;;6.45;2.80;;;16.10;99.90;;;;;;2602664;54;20987;31
2023/10/02 05:39:50;;;;;;;4.45;2.15;;;16.10;99.90;;;;;;2603109;54;20189;31
2023/10/02 05:42:24;;;;;;;4.70;2.20;;;16.10;99.90;;;;;;2602377;54;20089;31
2023/10/02 05:45:07;;;;;;;9.10;3.10;;;16.10;99.90;;;;;;2602460;54;20874;31
2023/10/02 05:47:48;;;;;;;9.45;2.92;;;16.20;99.90;;;;;;2602338;54;20031;31
2023/10/02 05:50:33;;;;;;;6.13;2.97;;;16.20;99.90;;;;;;2602989;54;20053;31
2023/10/02 05:53:12;;;;;;;7.22;2.33;;;16.20;99.90;;;;;;2603306;54;20858;31
2023/10/02 05:58:49;;;;;;;6.90;2.35;;;16.30;99.90;;;;;;2621528;47;20033;31
2023/10/02 06:01:27;;;;;;;5.90;2.77;;;16.30;99.90;;;;;;2621524;47;20026;31
2023/10/02 06:04:05;;;;;;;7.77;2.80;;;16.30;99.90;;;;;;2603017;54;20034;31
2023/10/02 06:06:48;;;;;;;9.60;2.90;;;16.30;99.90;;;;;;2602397;54;20246;31
2023/10/02 06:09:43;;;;;;;7.95;2.80;;;16.40;99.90;;;;;;2603103;54;20038;31
2023/10/02 06:12:27;;;;;;;10.98;2.47;;;16.40;99.90;;;;;;2603076;54;20027;31
2023/10/02 06:15:15;;;;;;;9.85;3.33;;;16.50;99.90;;;;;;2602180;54;20120;31
2023/10/02 06:17:58;;;;;;;8.93;2.28;;;16.50;99.90;;;;;;2602853;54;20030;31
2023/10/02 06:20:35;;;;;;;10.98;3.35;;;16.60;99.90;;;;;;2602896;54;20023;31
2023/10/02 06:23:22;;;;;;;8.40;3.10;;;16.60;99.90;;;;;;2602314;54;20030;31
2023/10/02 06:25:59;;;;;;;7.97;2.10;;;16.60;99.90;;;;;;2602951;54;20038;31
2023/10/02 06:28:37;;;;;;;10.52;2.95;;;16.70;99.90;;;;;;2621441;47;20027;31
2023/10/02 06:31:24;;;;;;;8.77;2.60;;;16.80;99.90;;;;;;2602775;54;20086;31
2023/10/02 06:34:08;;;;;;;12.77;3.25;;;16.80;99.90;;;;;;2602970;54;20195;31
2023/10/02 06:37:02;;;;;;;9.85;3.60;;;16.90;99.90;;;;;;2603303;54;20023;31
2023/10/02 06:39:45;;;;;;;5.40;2.83;;;17.00;99.90;;;;;;2603014;54;20881;31
2023/10/02 06:42:23;;;;;;;9.18;3.20;;;17.10;99.90;;;;;;2603049;54;20033;31
2023/10/02 06:45:09;;;;;;;8.98;3.22;;;17.20;99.90;;;;;;2621364;47;20085;31
2023/10/02 06:47:48;;;;;;;10.88;2.25;;;17.20;99.90;;;;;;2603261;54;20045;31
2023/10/02 06:50:30;;;;;;;11.75;3.05;;;17.30;99.90;;;;;;2602895;54;20050;31
2023/10/02 06:53:11;;;;;;;5.72;2.60;;;17.40;99.90;;;;;;2603673;54;20116;31
2023/10/02 06:56:06;;;;;;;5.10;2.15;;;17.40;99.90;;;;;;2603806;54;20037;31
2023/10/02 06:58:49;;;;;;;7.50;3.17;;;17.50;99.90;;;;;;2603766;54;20030;31
2023/10/02 07:01:29;;;;;;;8.07;2.00;;;17.60;99.90;;;;;;2603611;54;20093;31
2023/10/02 07:04:15;;;;;;;6.40;1.92;;;17.70;99.90;;;;;;2622006;46;20054;31
2023/10/02 07:06:50;;;;;;;8.07;2.35;;;17.80;99.90;;;;;;2603237;54;21591;31
2023/10/02 07:09:26;;;;;;;6.50;2.85;;;17.90;99.90;;;;;;2603704;54;20876;31
2023/10/02 07:12:16;;;;;;;;;;;18.00;99.90;;;;;;2603811;54;19940;31
2023/10/02 07:15:10;;;;;;;6.05;2.42;;;18.00;99.90;;;;;;2603705;54;20765;31
2023/10/02 07:18:00;;;;;;;6.15;2.72;;;18.10;99.90;;;;;;2603614;54;20881;31
2023/10/02 07:20:42;;;;;;;5.97;2.65;;;18.30;99.90;;;;;;2603575;54;20979;31
2023/10/02 07:23:23;;;;;;;7.43;3.20;;;18.30;99.90;;;;;;2603580;54;20665;31
2023/10/02 07:26:04;;;;;;;7.45;2.70;;;18.40;99.90;;;;;;2603537;54;20049;31
2023/10/02 07:28:50;;;;;;;5.70;3.10;;;18.50;99.90;;;;;;2603785;54;20778;31
2023/10/02 07:31:26;;;;;;;6.32;1.92;;;18.60;99.90;;;;;;2603439;54;20022;31
2023/10/02 07:34:07;;;;;;;7.90;1.90;;;18.80;99.90;;;;;;2615405;46;20152;31
2023/10/02 07:36:47;;;;;;;7.57;2.50;;;18.90;99.90;;;;;;2603612;54;20022;31
2023/10/02 07:39:36;;;;;;;6.10;1.80;;;19.00;99.90;;;;;;2603665;54;20929;31
2023/10/02 07:42:20;;;;;;;4.55;2.10;;;19.20;99.90;;;;;;2603530;54;20942;31
2023/10/02 07:45:11;;;;;;;11.45;2.00;;;19.30;99.90;;;;;;2603609;54;19939;31
2023/10/02 07:50:50;;;;;;;6.05;1.77;;;20.00;99.90;;;;;;2621898;46;20783;31
2023/10/02 07:53:43;;;;;;;4.85;1.88;;;20.40;99.90;;;;;;2603563;54;20799;31
2023/10/02 07:56:18;;;;;;;4.90;1.90;;;20.60;99.90;;;;;;2603350;54;20859;31
2023/10/02 07:59:01;;;;;;;6.60;2.05;;;20.90;99.90;;;;;;2621991;46;20033;31
2023/10/02 08:01:43;;;;;;;4.85;1.45;;;21.10;99.90;;;;;;2622153;47;20026;31
2023/10/02 08:04:45;;;;;;;5.53;2.05;;;21.20;99.90;;;;;;2622107;46;20026;31
2023/10/02 08:07:20;;;;;;;8.32;1.83;;;21.20;99.90;;;;;;2603688;54;20034;31
2023/10/02 08:10:15;;;;;;;7.80;2.17;;;21.20;99.90;;;;;;2603355;54;19938;31
2023/10/02 08:13:05;;;;;;;7.75;2.42;;;21.20;99.90;;;;;;2603366;54;20044;31
2023/10/02 08:15:43;;;;;;;6.35;2.25;;;21.20;99.90;;;;;;2603405;54;20748;31
2023/10/02 08:18:26;;;;;;;3.50;1.73;;;21.30;99.90;;;;;;2602614;54;20859;31
2023/10/02 08:21:05;;;;;;;3.75;1.77;;;21.30;99.90;;;;;;2603774;54;20022;31
2023/10/02 08:23:45;;;;;;;3.78;1.60;;;21.30;99.90;;;;;;2603405;54;20033;31
2023/10/02 08:26:21;;;;;;;5.10;1.58;;;21.30;99.90;;;;;;2603367;54;20042;31
2023/10/02 08:29:06;;;;;;;4.43;1.52;;;21.30;99.90;;;;;;2602993;54;20026;31
2023/10/02 08:31:48;;;;;;;4.90;1.92;;;21.40;99.90;;;;;;2603417;54;20033;31
2023/10/02 08:34:30;;;;;;;7.70;1.50;;;21.50;99.90;;;;;;2702083;39;21400;31
2023/10/02 08:37:12;;;;;;;2.40;1.30;;;21.50;99.90;;;;;;2606900;46;20101;31
2023/10/02 08:39:51;;;;;;;4.38;1.45;;;21.40;99.90;;;;;;2773274;31;20517;31
2023/10/02 08:42:28;;;;;;;7.35;1.50;;;21.40;99.90;;;;;;2619133;46;20039;31
2023/10/02 08:45:14;;;;;;;6.37;1.70;;;21.40;99.90;;;;;;2603454;54;20841;31
2023/10/02 08:48:07;;;;;;;;;;;21.40;99.90;;;;;;2619961;46;20343;31
2023/10/02 08:50:57;;;;;;;7.15;1.70;;;21.40;99.90;;;;;;2603399;54;19934;31
2023/10/02 08:53:35;;;;;;;4.32;1.50;;;21.50;99.90;;;;;;2603292;54;20764;31
2023/10/02 08:56:40;;;;;;;5.37;2.03;;;21.40;99.90;;;;;;2621845;46;20875;31
2023/10/02 08:59:26;;;;;;;3.60;1.30;;;21.50;99.90;;;;;;2603322;54;21204;31
2023/10/02 09:02:13;;;;;;;3.30;1.40;;;21.60;99.90;;;;;;2621778;46;20081;31
2023/10/02 09:05:09;;;;;;;3.58;1.50;;;21.60;99.90;;;;;;2603021;54;20031;31
2023/10/02 09:10:41;;;;;;;4.70;1.60;;;22.00;99.90;;;;;;2603101;54;20019;31
2023/10/02 09:13:20;;;;;;;5.53;1.77;;;22.40;99.90;;;;;;2602661;54;20764;31
2023/10/02 09:15:53;;;;;;;4.40;1.70;;;22.60;99.90;;;;;;2621973;46;20133;31
2023/10/02 09:19:07;;;;;;;3.63;1.57;;;22.70;99.90;;;;;;2603469;54;20033;31
2023/10/02 09:21:46;;;;;;;5.38;2.08;;;23.00;99.90;;;;;;2621116;46;20092;31
2023/10/02 09:24:32;;;;;;;5.67;1.60;;;23.30;99.90;;;;;;2603084;54;20034;31
2023/10/02 09:27:27;;;;;;;2.92;1.42;;;23.50;99.90;;;;;;2603151;54;20101;31
2023/10/02 09:30:19;;;;;;;4.25;1.38;;;23.70;99.90;;;;;;2603506;54;20906;31
2023/10/02 09:33:05;;;;;;;4.80;1.83;;;23.70;99.90;;;;;;2603926;46;20102;31
2023/10/02 09:35:50;;;;;;;5.43;1.60;;;23.90;99.90;;;;;;2621629;46;20894;31
2023/10/02 09:38:52;;;;;;;7.68;2.10;;;24.10;99.90;;;;;;2603015;54;20838;31
2023/10/02 09:41:33;;;;;;;6.70;1.65;;;24.40;99.90;;;;;;2603025;54;20740;31
2023/10/02 09:44:21;;;;;;;6.43;2.35;;;24.80;99.90;;;;;;2602526;54;20031;31
2023/10/02 09:46:57;;;;;;;;;;;25.10;99.90;;;;;;2603516;54;20755;31
2023/10/02 09:49:36;;;;;;;4.10;1.85;;;25.40;99.90;;;;;;2621687;46;20715;31
2023/10/02 09:52:23;;;;;;;4.47;1.70;;;25.70;99.90;;;;;;2602326;54;20903;31
2023/10/02 09:55:07;;;;;;;3.70;2.07;;;26.00;99.90;;;;;;2602318;54;20023;31
2023/10/02 09:57:49;;;;;;;6.07;2.25;;;26.20;99.90;;;;;;2603389;54;21063;31
2023/10/02 10:03:32;;;;;;;4.88;1.90;;;26.60;99.90;;;;;;2602956;54;19935;31
2023/10/02 10:06:05;;;;;;;5.10;2.25;;;26.80;99.90;;;;;;2603077;54;20044;31
2023/10/02 10:09:19;;;;;;;4.25;1.60;;;27.00;99.90;;;;;;2603034;54;20031;31
2023/10/02 10:14:54;;;;;;;3.97;1.50;;;27.10;99.90;;;;;;2603255;54;20117;31
2023/10/02 10:17:55;;;;;;;7.23;1.60;;;27.10;99.90;;;;;;2603139;54;20026;31
2023/10/02 10:20:34;;;;;;;3.07;1.67;;;27.20;99.90;;;;;;2602813;54;20755;31
2023/10/02 10:23:31;;;;;;;2.75;1.30;;;27.30;99.90;;;;;;2602587;54;21068;31
2023/10/02 10:26:13;;;;;;;;;;;27.30;99.90;;;;;;2622625;46;20029;31
2023/10/02 10:28:53;;;;;;;4.40;1.60;;;27.30;99.90;;;;;;2603931;54;20652;31
2023/10/02 10:31:33;;;;;;;2.85;1.27;;;27.30;99.90;;;;;;2602958;54;20018;31
2023/10/02 10:34:12;;;;;;;3.80;1.48;;;27.40;99.90;;;;;;2622280;46;20034;31
2023/10/02 10:36:54;;;;;;;6.13;1.58;;;27.30;99.90;;;;;;2622476;46;20113;31
2023/10/02 10:39:57;;;;;;;3.78;1.70;;;27.30;99.90;;;;;;2622114;46;20034;31
2023/10/02 10:42:42;;;;;;;4.35;1.40;;;27.30;99.90;;;;;;2603816;54;20053;31
2023/10/02 10:45:24;;;;;;;5.20;1.95;;;27.30;99.90;;;;;;2603762;54;20811;31
2023/10/02 10:47:59;;;;;;;12.02;1.40;;;27.20;99.90;;;;;;2603713;54;20120;31
2023/10/02 10:50:40;;;;;;;4.07;1.60;;;27.30;99.90;;;;;;2603882;54;20027;31
2023/10/02 10:53:29;;;;;;;3.97;1.60;;;27.30;99.90;;;;;;2622114;46;20789;31
2023/10/02 10:56:16;;;;;;;2.85;1.88;;;27.30;99.90;;;;;;2604654;46;20921;31
2023/10/02 10:59:02;;;;;;;4.25;2.03;;;27.20;99.90;;;;;;2622366;46;20034;31
2023/10/02 11:01:39;;;;;;;4.15;1.70;;;27.20;99.90;;;;;;2622376;46;20022;31
2023/10/02 11:04:27;;;;;;;6.20;1.50;;;27.20;99.90;;;;;;2603088;54;20759;31
2023/10/02 11:07:19;;;;;;;3.92;1.70;;;27.10;99.90;;;;;;2603717;54;20022;31
2023/10/02 11:12:54;;;;;;;4.88;1.40;;;27.00;99.90;;;;;;2603805;54;20856;31
2023/10/02 11:18:23;;;;;;;3.15;1.10;;;27.00;99.90;;;;;;2603865;54;20037;31
2023/10/02 11:21:02;;;;;;;7.10;1.50;;;27.00;99.90;;;;;;2603782;54;20073;31
2023/10/02 11:23:43;;;;;;;3.58;1.35;;;27.00;99.90;;;;;;2610222;46;20113;31
2023/10/02 11:26:26;;;;;;;2.78;1.25;;;27.00;99.90;;;;;;2602954;54;20112;31
2023/10/02 11:29:05;;;;;;;9.45;2.00;;;27.00;99.90;;;;;;2603843;54;20863;31
2023/10/02 11:31:49;;;;;;;5.05;1.63;;;26.90;99.90;;;;;;2701798;39;21524;31
2023/10/02 11:34:29;;;;;;;2.78;1.17;;;26.80;99.90;;;;;;2603270;54;20868;31
2023/10/02 11:37:18;;;;;;;4.83;2.10;;;26.80;99.90;;;;;;2603811;54;20042;31
2023/10/02 11:39:57;;;;;;;3.70;1.10;;;26.80;99.90;;;;;;2603741;54;20038;31
2023/10/02 11:42:34;;;;;;;4.72;1.60;;;26.80;99.90;;;;;;2603584;54;20871;31
2023/10/02 11:45:13;;;;;;;2.78;1.30;;;26.80;99.90;;;;;;2603645;54;20053;31
2023/10/02 11:47:49;;;;;;;3.97;1.60;;;26.80;99.90;;;;;;2603621;54;21570;31
2023/10/02 11:53:21;;;;;;;3.42;1.63;;;26.80;99.90;;;;;;2603234;54;20835;31
2023/10/02 11:55:59;;;;;;;3.28;1.60;;;26.80;99.90;;;;;;2603647;54;20848;31
2023/10/02 11:58:39;;;;;;;3.78;1.38;;;26.80;99.90;;;;;;2603456;54;20038;31
2023/10/02 12:01:26;;;;;;;4.38;1.35;;;26.80;99.60;;;;;;2603715;54;20061;31
2023/10/02 12:04:05;;;;;;;4.30;1.60;;;26.80;99.90;;;;;;2603571;54;20042;31
2023/10/02 12:06:44;;;;;;;5.80;1.40;;;26.70;99.90;;;;;;2603526;54;20030;31
2023/10/02 12:09:25;;;;;;;3.80;1.30;;;26.70;99.90;;;;;;2603623;54;20022;31
2023/10/02 12:12:02;;;;;;;3.95;1.33;;;26.80;99.90;;;;;;2773074;31;20525;31
2023/10/02 12:14:42;;;;;;;2.90;1.50;;;26.80;99.90;;;;;;2602668;54;20104;31
2023/10/02 12:17:25;;;;;;;3.33;1.23;;;26.70;99.20;;;;;;2604009;46;20054;31
2023/10/02 12:20:10;;;;;;;3.95;1.55;;;26.70;99.70;;;;;;2602721;54;20035;31
2023/10/02 12:22:49;;;;;;;2.80;1.45;;;26.60;99.10;;;;;;2602724;54;20845;31
2023/10/02 12:25:33;;;;;;;2.97;1.40;;;26.50;99.70;;;;;;2701436;39;20420;31
2023/10/02 12:28:12;;;;;;;3.40;1.30;;;26.50;99.40;;;;;;2621835;46;20027;31
2023/10/02 12:30:53;;;;;;;4.35;1.80;;;26.40;99.10;;;;;;2603410;54;20879;31
2023/10/02 12:33:34;;;;;;;7.90;2.00;;;26.30;99.50;;;;;;2606334;46;20037;31
2023/10/02 12:36:17;;;;;;;5.03;1.98;;;26.30;99.50;;;;;;2603405;54;20874;31
2023/10/02 12:38:57;;;;;;;5.93;1.40;;;26.30;99.10;;;;;;2603458;54;20904;31
2023/10/02 12:41:38;;;;;;;5.10;1.75;;;26.20;99.90;;;;;;2603553;54;20026;31
2023/10/02 12:44:40;;;;;;;6.95;1.92;;;26.10;99.90;;;;;;2621914;46;20061;31
2023/10/02 12:47:23;;;;;;;7.40;1.75;;;26.10;99.90;;;;;;2603331;54;20841;31
2023/10/02 12:50:03;;;;;;;3.90;1.88;;;26.10;99.50;;;;;;2602759;54;20802;31
2023/10/02 12:52:57;;;;;;;2.85;1.40;;;26.10;99.80;;;;;;2602637;54;20817;31
2023/10/02 12:55:45;;;;;;;4.93;2.00;;;26.10;99.60;;;;;;2603324;54;20057;31
2023/10/02 12:58:27;;;;;;;4.82;1.80;;;26.10;99.90;;;;;;2603427;54;20120;31
2023/10/02 13:01:06;;;;;;;3.75;1.77;;;26.10;99.90;;;;;;2603236;54;20083;31
2023/10/02 13:03:45;;;;;;;4.85;1.80;;;26.20;99.90;;;;;;2602675;54;19988;31
2023/10/02 13:06:24;;;;;;;6.13;1.67;;;26.20;99.90;;;;;;2602183;54;20042;31
2023/10/02 13:09:08;;;;;;;5.07;1.70;;;26.20;99.30;;;;;;2616754;46;20108;31
2023/10/02 13:11:44;;;;;;;3.45;1.65;;;26.20;99.80;;;;;;2603180;54;20019;31
2023/10/02 13:14:21;;;;;;;5.45;2.20;;;26.20;99.70;;;;;;2603243;54;20054;31
2023/10/02 13:17:02;;;;;;;3.42;1.52;;;26.10;99.80;;;;;;2603060;54;20030;31
2023/10/02 13:22:14;;;;;;;4.30;1.92;;;26.10;99.00;;;;;;2603228;54;20022;31
2023/10/02 13:24:50;;;;;;;4.43;1.67;;;26.10;99.10;;;;;;2603156;54;20835;31
2023/10/02 13:27:25;;;;;;;;;;;26.10;98.80;;;;;;2603375;54;20034;31
2023/10/02 13:30:05;;;;;;;4.80;1.80;;;26.10;99.90;;;;;;2602742;54;20750;31
2023/10/02 13:32:48;;;;;;;4.20;1.55;;;26.00;99.40;;;;;;2603625;46;20057;31
2023/10/02 13:35:24;;;;;;;3.20;1.45;;;26.00;99.90;;;;;;2608822;46;20018;31
2023/10/02 13:38:03;;;;;;;4.97;1.70;;;25.90;99.60;;;;;;2614737;46;20120;31
2023/10/02 13:40:38;;;;;;;6.25;1.35;;;25.90;99.90;;;;;;2613835;46;20809;31
2023/10/02 13:43:18;;;;;;;4.68;1.45;;;25.90;99.70;;;;;;2603148;54;20890;31
2023/10/02 13:45:57;;;;;;;4.25;1.42;;;25.80;99.90;;;;;;2621663;46;20085;31
2023/10/02 13:48:38;;;;;;;3.97;1.45;;;25.80;99.90;;;;;;2603095;54;20023;31
2023/10/02 13:51:16;;;;;;;4.47;1.48;;;25.90;99.90;;;;;;2603202;54;20042;31
2023/10/02 13:53:53;;;;;;;5.60;1.50;;;25.90;99.90;;;;;;2603157;54;20023;31
2023/10/02 13:56:32;;;;;;;4.68;1.60;;;25.90;99.90;;;;;;2621512;46;20869;31
2023/10/02 13:59:11;;;;;;;5.15;1.50;;;25.90;99.70;;;;;;2602708;54;20050;31
2023/10/02 14:01:50;;;;;;;4.70;1.40;;;25.90;99.90;;;;;;2603219;54;22018;31
2023/10/02 14:04:30;;;;;;;4.40;1.90;;;25.90;99.90;;;;;;2621739;47;20030;31
2023/10/02 14:07:06;;;;;;;2.92;1.27;;;25.90;99.90;;;;;;2603185;54;20082;31
2023/10/02 14:09:43;;;;;;;7.15;1.92;;;25.90;99.90;;;;;;2621362;47;20017;31
2023/10/02 14:12:22;;;;;;;4.30;1.65;;;25.90;99.90;;;;;;2621415;47;21534;31
2023/10/02 14:14:58;;;;;;;2.55;1.20;;;25.90;99.90;;;;;;2621434;47;20033;31
2023/10/02 14:17:39;;;;;;;3.85;1.45;;;25.90;99.90;;;;;;2603172;54;20030;31
2023/10/02 14:20:20;;;;;;;4.60;1.33;;;25.80;99.90;;;;;;2602872;54;20939;31
2023/10/02 14:22:56;;;;;;;5.25;1.85;;;25.80;99.90;;;;;;2603013;54;20864;31
2023/10/02 14:25:32;;;;;;;11.30;1.80;;;25.80;99.90;;;;;;2602919;54;20847;31
2023/10/02 14:28:08;;;;;;;3.08;1.33;;;25.70;99.90;;;;;;2602233;54;20247;31
2023/10/02 14:30:45;;;;;;;3.95;1.63;;;25.70;99.90;;;;;;2621487;47;20034;31
2023/10/02 14:33:25;;;;;;;4.05;1.55;;;25.60;99.90;;;;;;2603014;54;20803;31
2023/10/02 14:36:08;;;;;;;8.10;1.83;;;25.60;99.90;;;;;;2602722;54;20029;31
2023/10/02 14:38:45;;;;;;;3.88;1.85;;;25.60;99.90;;;;;;2621833;47;20872;31
2023/10/02 14:41:25;;;;;;;3.85;1.60;;;25.60;99.90;;;;;;2602779;54;21265;31
2023/10/02 14:44:04;;;;;;;4.28;1.85;;;25.50;99.90;;;;;;2602598;54;20949;31
2023/10/02 14:46:40;;;;;;;3.58;1.67;;;25.50;99.90;;;;;;2602726;54;20920;31
2023/10/02 14:49:18;;;;;;;4.00;1.50;;;25.40;99.90;;;;;;2621560;47;20099;31
2023/10/02 14:52:03;;;;;;;4.07;1.87;;;25.40;99.90;;;;;;2602044;54;20785;31
2023/10/02 14:54:43;;;;;;;3.75;1.73;;;25.40;99.90;;;;;;2602814;54;20022;31
2023/10/02 14:57:22;;;;;;;4.22;1.80;;;25.40;99.90;;;;;;2602083;54;20866;31